createdAt,value
2018-05-10T00:08:03.960Z,41.8
2018-05-10T00:18:03.147Z,41.8
2018-05-10T00:28:02.364Z,41.8
2018-05-10T00:38:01.663Z,41.8
2018-05-10T00:48:00.801Z,41.8
2018-05-10T00:58:00.062Z,41.8
2018-05-10T01:07:59.233Z,41.9
2018-05-10T01:17:58.491Z,41.9
2018-05-10T01:27:57.697Z,41.9
2018-05-10T01:37:56.874Z,41.9
2018-05-10T01:47:56.106Z,41.9
2018-05-10T01:57:55.347Z,41.9
2018-05-10T02:07:54.573Z,41.9
2018-05-10T02:17:53.779Z,41.9
2018-05-10T02:27:52.956Z,41.9
2018-05-10T02:37:52.189Z,41.9
2018-05-10T02:47:51.388Z,42
2018-05-10T02:57:50.604Z,41.9
2018-05-10T03:07:49.829Z,42
2018-05-10T03:17:49.076Z,42
2018-05-10T03:27:48.252Z,42
2018-05-10T03:37:47.507Z,40.2
2018-05-10T03:47:46.693Z,33.5
2018-05-10T03:57:45.910Z,32.6
2018-05-10T04:07:45.115Z,31.9
2018-05-10T04:17:44.372Z,31.6
2018-05-10T04:27:43.581Z,31.9
2018-05-10T04:37:42.768Z,32.1
2018-05-10T04:47:41.996Z,30.6
2018-05-10T04:57:41.203Z,31
2018-05-10T05:07:40.461Z,30.6
2018-05-10T05:17:39.686Z,29.9
2018-05-10T05:27:38.897Z,30
2018-05-10T05:37:38.125Z,30.1
2018-05-10T05:47:37.302Z,30.4
2018-05-10T05:57:36.569Z,30.6
2018-05-10T06:07:35.731Z,30.9
2018-05-10T06:17:34.986Z,31.1
2018-05-10T06:27:34.162Z,31.5
2018-05-10T06:37:33.389Z,31.9
2018-05-10T06:47:32.601Z,32.4
2018-05-10T06:57:31.904Z,32.9
2018-05-10T07:07:31.032Z,33.8
2018-05-10T07:17:30.249Z,34.6
2018-05-10T07:27:29.480Z,35.4
2018-05-10T07:37:28.693Z,36.2
2018-05-10T07:47:28.087Z,37.1
2018-05-10T07:57:27.159Z,37.8
2018-05-10T08:07:26.335Z,38.5
2018-05-10T08:17:25.594Z,39.3
2018-05-10T08:27:24.771Z,39.8
2018-05-10T08:37:23.994Z,40.4
2018-05-10T08:47:23.245Z,40.9
2018-05-10T08:57:22.422Z,41.5
2018-05-10T09:07:21.657Z,41.9
2018-05-10T09:17:20.862Z,42.4
2018-05-10T09:27:20.095Z,42.9
2018-05-10T09:37:19.351Z,43.4
2018-05-10T09:47:18.557Z,44
2018-05-10T09:57:17.789Z,44.7
2018-05-10T10:07:16.965Z,45.3
2018-05-10T10:17:16.214Z,45.8
2018-05-10T10:27:15.513Z,46.3
2018-05-10T10:37:14.615Z,46.7
2018-05-10T10:47:13.923Z,47.1
2018-05-10T10:57:13.066Z,47.3
2018-05-10T11:07:12.282Z,47.4
2018-05-10T11:17:11.530Z,47.6
2018-05-10T11:27:10.718Z,47.6
2018-05-10T11:37:09.937Z,47.8
2018-05-10T11:47:09.206Z,47.8
2018-05-10T11:57:08.379Z,47.9
2018-05-10T12:07:07.583Z,47.9
2018-05-10T12:17:06.850Z,48
2018-05-10T12:27:06.061Z,48
2018-05-10T12:37:05.299Z,48.1
2018-05-10T12:47:04.468Z,48.1
2018-05-10T12:57:03.685Z,48.1
2018-05-10T13:07:02.895Z,48.1
2018-05-10T13:17:02.153Z,48.2
2018-05-10T13:27:01.338Z,48.3
2018-05-10T13:37:00.559Z,48.3
2018-05-10T13:46:59.921Z,48.3
2018-05-10T13:56:58.989Z,48.3
2018-05-10T14:06:58.245Z,48.3
2018-05-10T14:16:57.465Z,48.3
2018-05-10T14:26:56.700Z,48.3
2018-05-10T14:36:55.918Z,48.3
2018-05-10T14:46:55.141Z,48.2
2018-05-10T14:56:54.296Z,47.9
2018-05-10T15:06:53.605Z,47.8
2018-05-10T15:16:52.775Z,47.2
2018-05-10T15:26:52.005Z,46.1
2018-05-10T15:36:51.193Z,45.6
2018-05-10T15:46:50.404Z,45.3
2018-05-10T15:56:49.656Z,45.1
2018-05-10T16:06:48.842Z,45
2018-05-10T16:16:48.064Z,44.4
2018-05-10T16:26:47.277Z,42.8
2018-05-10T16:36:46.494Z,42
2018-05-10T16:46:45.758Z,41.8
2018-05-10T16:56:44.932Z,41.6
2018-05-10T17:06:44.249Z,41.4
2018-05-10T17:16:43.417Z,40.9
2018-05-10T17:26:42.602Z,40.9
2018-05-10T17:36:41.872Z,39.8
2018-05-10T17:46:41.043Z,39.6
2018-05-10T17:56:40.295Z,39.6
2018-05-10T18:06:39.519Z,39.6
2018-05-10T18:16:38.697Z,39.1
2018-05-10T18:26:37.931Z,38.9
2018-05-10T18:36:37.188Z,38.9
2018-05-10T18:46:36.407Z,31.1
2018-05-10T18:56:35.619Z,29.4
2018-05-10T19:06:34.842Z,28.9
2018-05-10T19:16:34.036Z,28.4
2018-05-10T19:26:33.391Z,28
2018-05-10T19:36:32.508Z,28.4
2018-05-10T19:46:31.735Z,28.5
2018-05-10T19:56:30.915Z,28.7
2018-05-10T20:06:30.133Z,28.8
2018-05-10T20:16:29.350Z,29
2018-05-10T20:26:28.560Z,29.1
2018-05-10T20:36:27.843Z,29.2
2018-05-10T20:46:27.005Z,29.3
2018-05-10T20:56:26.214Z,29.4
2018-05-10T21:06:25.479Z,29.4
2018-05-10T21:16:24.797Z,29.5
2018-05-10T21:26:23.906Z,29.6
2018-05-10T21:36:23.084Z,29.6
2018-05-10T21:46:22.309Z,29.6
2018-05-10T21:56:21.526Z,29.7
2018-05-10T22:06:20.774Z,29.8
2018-05-10T22:16:20.002Z,29.8
2018-05-10T22:26:19.210Z,29.9
2018-05-10T22:36:18.435Z,29.9
2018-05-10T22:46:17.613Z,29.9
2018-05-10T22:56:16.818Z,30
2018-05-10T23:06:16.254Z,30.1
2018-05-10T23:16:15.260Z,30.1
2018-05-10T23:26:14.519Z,30
2018-05-10T23:36:13.693Z,30.1
2018-05-10T23:46:12.904Z,30.1
2018-05-10T23:56:12.157Z,30.1
